sensor_id;sensor_type;location;lat;lon;timestamp;P1;durP1;ratioP1;P2;durP2;ratioP2
76597;SDS011;65486;53.144;18.134;2023-02-19T00:02:17;11.30;;;2.90;;
76597;SDS011;65486;53.144;18.134;2023-02-19T00:04:49;8.40;;;2.60;;
76597;SDS011;65486;53.144;18.134;2023-02-19T00:07:16;11.00;;;2.90;;
76597;SDS011;65486;53.144;18.134;2023-02-19T00:09:50;8.50;;;2.70;;
76597;SDS011;65486;53.144;18.134;2023-02-19T00:12:16;8.60;;;2.60;;
76597;SDS011;65486;53.144;18.134;2023-02-19T00:14:42;9.00;;;3.00;;
76597;SDS011;65486;53.144;18.134;2023-02-19T00:17:12;10.70;;;2.60;;
76597;SDS011;65486;53.144;18.134;2023-02-19T00:19:38;9.70;;;2.60;;
76597;SDS011;65486;53.144;18.134;2023-02-19T00:22:04;8.90;;;2.70;;
76597;SDS011;65486;53.144;18.134;2023-02-19T00:24:31;5.40;;;1.80;;
76597;SDS011;65486;53.144;18.134;2023-02-19T00:27:01;9.80;;;3.20;;
76597;SDS011;65486;53.144;18.134;2023-02-19T00:29:30;10.70;;;3.10;;
76597;SDS011;65486;53.144;18.134;2023-02-19T00:31:58;10.10;;;3.70;;
76597;SDS011;65486;53.144;18.134;2023-02-19T00:34:27;14.50;;;4.80;;
76597;SDS011;65486;53.144;18.134;2023-02-19T00:36:53;10.20;;;4.30;;
76597;SDS011;65486;53.144;18.134;2023-02-19T00:39:19;15.20;;;6.10;;
76597;SDS011;65486;53.144;18.134;2023-02-19T00:41:46;11.10;;;4.50;;
76597;SDS011;65486;53.144;18.134;2023-02-19T00:44:13;13.40;;;3.90;;
76597;SDS011;65486;53.144;18.134;2023-02-19T00:46:45;8.90;;;3.60;;
76597;SDS011;65486;53.144;18.134;2023-02-19T00:49:16;5.20;;;2.10;;
76597;SDS011;65486;53.144;18.134;2023-02-19T00:52:00;9.40;;;2.70;;
76597;SDS011;65486;53.144;18.134;2023-02-19T00:54:35;8.20;;;3.00;;
76597;SDS011;65486;53.144;18.134;2023-02-19T00:57:07;12.10;;;3.10;;
76597;SDS011;65486;53.144;18.134;2023-02-19T00:59:33;10.10;;;2.40;;
76597;SDS011;65486;53.144;18.134;2023-02-19T01:02:02;10.40;;;2.70;;
76597;SDS011;65486;53.144;18.134;2023-02-19T01:04:29;12.10;;;2.70;;
76597;SDS011;65486;53.144;18.134;2023-02-19T01:07:01;10.50;;;2.70;;
76597;SDS011;65486;53.144;18.134;2023-02-19T01:09:30;10.00;;;2.80;;
76597;SDS011;65486;53.144;18.134;2023-02-19T01:11:57;9.80;;;2.90;;
76597;SDS011;65486;53.144;18.134;2023-02-19T01:14:25;9.40;;;3.30;;
76597;SDS011;65486;53.144;18.134;2023-02-19T01:16:54;12.80;;;3.90;;
76597;SDS011;65486;53.144;18.134;2023-02-19T01:19:29;13.50;;;4.40;;
76597;SDS011;65486;53.144;18.134;2023-02-19T01:21:56;10.10;;;3.70;;
76597;SDS011;65486;53.144;18.134;2023-02-19T01:24:22;12.30;;;4.20;;
76597;SDS011;65486;53.144;18.134;2023-02-19T01:26:48;11.90;;;3.80;;
76597;SDS011;65486;53.144;18.134;2023-02-19T01:29:14;10.20;;;3.30;;
76597;SDS011;65486;53.144;18.134;2023-02-19T01:31:42;14.10;;;3.10;;
76597;SDS011;65486;53.144;18.134;2023-02-19T01:34:09;9.40;;;3.60;;
76597;SDS011;65486;53.144;18.134;2023-02-19T01:36:38;10.20;;;3.10;;
76597;SDS011;65486;53.144;18.134;2023-02-19T01:39:08;10.30;;;3.40;;
76597;SDS011;65486;53.144;18.134;2023-02-19T01:41:37;7.80;;;3.00;;
76597;SDS011;65486;53.144;18.134;2023-02-19T01:44:07;9.90;;;4.40;;
76597;SDS011;65486;53.144;18.134;2023-02-19T01:46:38;11.50;;;3.50;;
76597;SDS011;65486;53.144;18.134;2023-02-19T01:51:41;7.90;;;2.70;;
76597;SDS011;65486;53.144;18.134;2023-02-19T01:54:21;11.50;;;3.60;;
76597;SDS011;65486;53.144;18.134;2023-02-19T01:56:53;7.90;;;1.80;;
76597;SDS011;65486;53.144;18.134;2023-02-19T01:59:21;10.10;;;3.00;;
76597;SDS011;65486;53.144;18.134;2023-02-19T02:01:48;8.30;;;2.70;;
76597;SDS011;65486;53.144;18.134;2023-02-19T02:04:14;9.20;;;3.00;;
76597;SDS011;65486;53.144;18.134;2023-02-19T02:09:16;5.20;;;2.10;;
76597;SDS011;65486;53.144;18.134;2023-02-19T02:12:02;11.50;;;3.50;;
76597;SDS011;65486;53.144;18.134;2023-02-19T02:14:30;10.80;;;3.70;;
76597;SDS011;65486;53.144;18.134;2023-02-19T02:20:22;8.60;;;3.50;;
76597;SDS011;65486;53.144;18.134;2023-02-19T02:31:40;11.50;;;3.60;;
76597;SDS011;65486;53.144;18.134;2023-02-19T02:34:11;7.10;;;2.90;;
76597;SDS011;65486;53.144;18.134;2023-02-19T02:36:43;6.20;;;2.50;;
76597;SDS011;65486;53.144;18.134;2023-02-19T02:39:14;8.40;;;2.20;;
76597;SDS011;65486;53.144;18.134;2023-02-19T02:42:06;7.10;;;2.60;;
76597;SDS011;65486;53.144;18.134;2023-02-19T02:44:57;8.50;;;2.60;;
76597;SDS011;65486;53.144;18.134;2023-02-19T02:51:04;8.70;;;2.40;;
76597;SDS011;65486;53.144;18.134;2023-02-19T02:56:40;10.20;;;2.90;;
76597;SDS011;65486;53.144;18.134;2023-02-19T02:59:10;9.00;;;2.60;;
76597;SDS011;65486;53.144;18.134;2023-02-19T03:05:05;9.60;;;2.50;;
76597;SDS011;65486;53.144;18.134;2023-02-19T03:08:10;9.00;;;2.10;;
76597;SDS011;65486;53.144;18.134;2023-02-19T03:14:36;9.00;;;2.30;;
76597;SDS011;65486;53.144;18.134;2023-02-19T03:17:08;8.90;;;2.10;;
76597;SDS011;65486;53.144;18.134;2023-02-19T03:19:59;8.60;;;2.40;;
76597;SDS011;65486;53.144;18.134;2023-02-19T03:22:30;9.40;;;2.10;;
76597;SDS011;65486;53.144;18.134;2023-02-19T03:25:03;8.80;;;2.70;;
76597;SDS011;65486;53.144;18.134;2023-02-19T03:27:53;8.30;;;2.30;;
76597;SDS011;65486;53.144;18.134;2023-02-19T03:30:23;7.90;;;2.90;;
76597;SDS011;65486;53.144;18.134;2023-02-19T03:32:57;9.80;;;3.30;;
76597;SDS011;65486;53.144;18.134;2023-02-19T03:35:46;8.40;;;2.30;;
76597;SDS011;65486;53.144;18.134;2023-02-19T03:38:22;15.00;;;4.60;;
76597;SDS011;65486;53.144;18.134;2023-02-19T03:43:34;10.90;;;5.30;;
76597;SDS011;65486;53.144;18.134;2023-02-19T03:46:14;14.80;;;5.00;;
76597;SDS011;65486;53.144;18.134;2023-02-19T03:48:52;16.20;;;6.10;;
76597;SDS011;65486;53.144;18.134;2023-02-19T03:51:38;14.50;;;5.50;;
76597;SDS011;65486;53.144;18.134;2023-02-19T03:54:21;15.10;;;5.70;;
76597;SDS011;65486;53.144;18.134;2023-02-19T03:57:08;15.10;;;5.00;;
76597;SDS011;65486;53.144;18.134;2023-02-19T03:59:54;14.40;;;4.80;;
76597;SDS011;65486;53.144;18.134;2023-02-19T04:02:49;7.90;;;3.40;;
76597;SDS011;65486;53.144;18.134;2023-02-19T04:05:26;11.70;;;4.60;;
76597;SDS011;65486;53.144;18.134;2023-02-19T04:07:58;12.10;;;4.60;;
76597;SDS011;65486;53.144;18.134;2023-02-19T04:10:32;11.90;;;4.80;;
76597;SDS011;65486;53.144;18.134;2023-02-19T04:13:05;7.30;;;2.00;;
76597;SDS011;65486;53.144;18.134;2023-02-19T04:15:40;11.10;;;4.00;;
76597;SDS011;65486;53.144;18.134;2023-02-19T04:18:17;11.70;;;4.10;;
76597;SDS011;65486;53.144;18.134;2023-02-19T04:20:51;9.70;;;4.00;;
76597;SDS011;65486;53.144;18.134;2023-02-19T04:23:18;13.50;;;4.60;;
76597;SDS011;65486;53.144;18.134;2023-02-19T04:25:49;3.80;;;1.80;;
76597;SDS011;65486;53.144;18.134;2023-02-19T04:28:22;11.00;;;4.20;;
76597;SDS011;65486;53.144;18.134;2023-02-19T04:30:49;9.40;;;3.30;;
76597;SDS011;65486;53.144;18.134;2023-02-19T04:33:18;10.20;;;3.20;;
76597;SDS011;65486;53.144;18.134;2023-02-19T04:35:52;11.00;;;3.70;;
76597;SDS011;65486;53.144;18.134;2023-02-19T04:38:22;9.90;;;3.00;;
76597;SDS011;65486;53.144;18.134;2023-02-19T04:40:48;8.40;;;3.60;;
76597;SDS011;65486;53.144;18.134;2023-02-19T04:43:17;9.00;;;3.00;;
76597;SDS011;65486;53.144;18.134;2023-02-19T04:45:48;13.10;;;4.10;;
76597;SDS011;65486;53.144;18.134;2023-02-19T04:48:16;10.90;;;4.00;;
76597;SDS011;65486;53.144;18.134;2023-02-19T04:50:42;9.20;;;3.20;;
76597;SDS011;65486;53.144;18.134;2023-02-19T04:53:09;6.50;;;2.20;;
76597;SDS011;65486;53.144;18.134;2023-02-19T04:55:36;13.30;;;5.00;;
76597;SDS011;65486;53.144;18.134;2023-02-19T04:58:03;7.80;;;2.90;;
76597;SDS011;65486;53.144;18.134;2023-02-19T05:00:30;15.90;;;5.70;;
76597;SDS011;65486;53.144;18.134;2023-02-19T05:02:59;13.30;;;4.50;;
76597;SDS011;65486;53.144;18.134;2023-02-19T05:05:26;12.00;;;4.40;;
76597;SDS011;65486;53.144;18.134;2023-02-19T05:07:53;17.20;;;4.90;;
76597;SDS011;65486;53.144;18.134;2023-02-19T05:10:19;14.70;;;4.60;;
76597;SDS011;65486;53.144;18.134;2023-02-19T05:12:45;15.20;;;4.20;;
76597;SDS011;65486;53.144;18.134;2023-02-19T05:15:12;11.00;;;3.90;;
76597;SDS011;65486;53.144;18.134;2023-02-19T05:17:39;11.00;;;3.50;;
76597;SDS011;65486;53.144;18.134;2023-02-19T05:20:08;9.80;;;2.70;;
76597;SDS011;65486;53.144;18.134;2023-02-19T05:22:35;9.60;;;2.70;;
76597;SDS011;65486;53.144;18.134;2023-02-19T05:25:03;12.70;;;3.90;;
76597;SDS011;65486;53.144;18.134;2023-02-19T05:27:30;8.70;;;2.00;;
76597;SDS011;65486;53.144;18.134;2023-02-19T05:29:57;9.80;;;2.70;;
76597;SDS011;65486;53.144;18.134;2023-02-19T05:32:23;12.40;;;3.80;;
76597;SDS011;65486;53.144;18.134;2023-02-19T05:34:49;8.80;;;3.00;;
76597;SDS011;65486;53.144;18.134;2023-02-19T05:37:16;7.60;;;3.10;;
76597;SDS011;65486;53.144;18.134;2023-02-19T05:39:44;9.00;;;2.90;;
76597;SDS011;65486;53.144;18.134;2023-02-19T05:42:12;8.30;;;2.70;;
76597;SDS011;65486;53.144;18.134;2023-02-19T05:44:41;6.10;;;2.30;;
76597;SDS011;65486;53.144;18.134;2023-02-19T05:47:10;8.50;;;3.30;;
76597;SDS011;65486;53.144;18.134;2023-02-19T05:49:42;12.50;;;3.50;;
76597;SDS011;65486;53.144;18.134;2023-02-19T05:52:08;8.40;;;3.20;;
76597;SDS011;65486;53.144;18.134;2023-02-19T05:54:34;9.60;;;3.00;;
76597;SDS011;65486;53.144;18.134;2023-02-19T05:57:01;9.50;;;3.20;;
76597;SDS011;65486;53.144;18.134;2023-02-19T05:59:27;8.10;;;3.20;;
76597;SDS011;65486;53.144;18.134;2023-02-19T06:01:54;11.30;;;3.80;;
76597;SDS011;65486;53.144;18.134;2023-02-19T06:04:23;10.60;;;3.80;;
76597;SDS011;65486;53.144;18.134;2023-02-19T06:06:53;9.80;;;3.20;;
76597;SDS011;65486;53.144;18.134;2023-02-19T06:09:22;9.20;;;3.10;;
76597;SDS011;65486;53.144;18.134;2023-02-19T06:11:48;5.90;;;2.00;;
76597;SDS011;65486;53.144;18.134;2023-02-19T06:14:18;10.80;;;3.50;;
76597;SDS011;65486;53.144;18.134;2023-02-19T06:16:45;12.00;;;4.30;;
76597;SDS011;65486;53.144;18.134;2023-02-19T06:19:11;11.50;;;4.00;;
76597;SDS011;65486;53.144;18.134;2023-02-19T06:21:39;11.50;;;4.90;;
76597;SDS011;65486;53.144;18.134;2023-02-19T06:24:07;14.50;;;5.20;;
76597;SDS011;65486;53.144;18.134;2023-02-19T06:26:36;11.50;;;4.50;;
76597;SDS011;65486;53.144;18.134;2023-02-19T06:29:04;10.10;;;4.30;;
76597;SDS011;65486;53.144;18.134;2023-02-19T06:31:32;11.70;;;4.50;;
76597;SDS011;65486;53.144;18.134;2023-02-19T06:34:02;11.90;;;3.50;;
76597;SDS011;65486;53.144;18.134;2023-02-19T06:36:35;6.00;;;2.10;;
76597;SDS011;65486;53.144;18.134;2023-02-19T06:39:02;11.80;;;4.30;;
76597;SDS011;65486;53.144;18.134;2023-02-19T06:41:31;9.70;;;3.70;;
76597;SDS011;65486;53.144;18.134;2023-02-19T06:43:58;12.20;;;4.00;;
76597;SDS011;65486;53.144;18.134;2023-02-19T06:46:24;10.80;;;3.50;;
76597;SDS011;65486;53.144;18.134;2023-02-19T06:48:51;11.60;;;4.30;;
76597;SDS011;65486;53.144;18.134;2023-02-19T06:51:20;13.90;;;3.10;;
76597;SDS011;65486;53.144;18.134;2023-02-19T06:53:52;10.50;;;2.80;;
76597;SDS011;65486;53.144;18.134;2023-02-19T06:56:21;7.10;;;2.00;;
76597;SDS011;65486;53.144;18.134;2023-02-19T06:58:58;10.80;;;3.40;;
76597;SDS011;65486;53.144;18.134;2023-02-19T07:01:28;10.20;;;2.70;;
76597;SDS011;65486;53.144;18.134;2023-02-19T07:03:56;9.50;;;4.00;;
76597;SDS011;65486;53.144;18.134;2023-02-19T07:06:23;11.70;;;3.30;;
76597;SDS011;65486;53.144;18.134;2023-02-19T07:08:53;12.80;;;3.80;;
76597;SDS011;65486;53.144;18.134;2023-02-19T07:11:21;14.50;;;3.70;;
76597;SDS011;65486;53.144;18.134;2023-02-19T07:13:52;11.70;;;3.30;;
76597;SDS011;65486;53.144;18.134;2023-02-19T07:16:26;13.90;;;5.30;;
76597;SDS011;65486;53.144;18.134;2023-02-19T07:18:56;10.20;;;4.20;;
76597;SDS011;65486;53.144;18.134;2023-02-19T07:21:25;9.30;;;3.00;;
76597;SDS011;65486;53.144;18.134;2023-02-19T07:23:56;12.20;;;4.30;;
76597;SDS011;65486;53.144;18.134;2023-02-19T07:26:23;11.90;;;4.70;;
76597;SDS011;65486;53.144;18.134;2023-02-19T07:28:50;15.80;;;6.20;;
76597;SDS011;65486;53.144;18.134;2023-02-19T07:31:17;14.30;;;5.00;;
76597;SDS011;65486;53.144;18.134;2023-02-19T07:33:46;12.10;;;4.20;;
76597;SDS011;65486;53.144;18.134;2023-02-19T07:36:13;15.00;;;4.20;;
76597;SDS011;65486;53.144;18.134;2023-02-19T07:38:41;14.60;;;4.90;;
76597;SDS011;65486;53.144;18.134;2023-02-19T07:41:10;13.20;;;4.00;;
76597;SDS011;65486;53.144;18.134;2023-02-19T07:43:36;14.60;;;4.30;;
76597;SDS011;65486;53.144;18.134;2023-02-19T07:46:06;12.80;;;4.10;;
76597;SDS011;65486;53.144;18.134;2023-02-19T07:48:38;12.70;;;3.80;;
76597;SDS011;65486;53.144;18.134;2023-02-19T07:51:09;14.00;;;3.90;;
76597;SDS011;65486;53.144;18.134;2023-02-19T07:53:38;8.50;;;3.10;;
76597;SDS011;65486;53.144;18.134;2023-02-19T07:56:05;14.10;;;3.60;;
76597;SDS011;65486;53.144;18.134;2023-02-19T07:58:32;9.60;;;3.60;;
76597;SDS011;65486;53.144;18.134;2023-02-19T08:01:32;11.50;;;3.70;;
76597;SDS011;65486;53.144;18.134;2023-02-19T08:04:10;14.00;;;4.50;;
76597;SDS011;65486;53.144;18.134;2023-02-19T08:06:40;18.80;;;7.30;;
76597;SDS011;65486;53.144;18.134;2023-02-19T08:09:07;13.80;;;4.50;;
76597;SDS011;65486;53.144;18.134;2023-02-19T08:11:34;10.40;;;3.00;;
76597;SDS011;65486;53.144;18.134;2023-02-19T08:14:22;8.70;;;2.60;;
76597;SDS011;65486;53.144;18.134;2023-02-19T08:16:49;9.40;;;3.20;;
76597;SDS011;65486;53.144;18.134;2023-02-19T08:19:19;10.30;;;3.40;;
76597;SDS011;65486;53.144;18.134;2023-02-19T08:21:47;6.30;;;2.10;;
76597;SDS011;65486;53.144;18.134;2023-02-19T08:24:16;8.20;;;2.40;;
76597;SDS011;65486;53.144;18.134;2023-02-19T08:26:42;6.50;;;2.30;;
76597;SDS011;65486;53.144;18.134;2023-02-19T08:29:10;11.20;;;3.20;;
76597;SDS011;65486;53.144;18.134;2023-02-19T08:31:39;9.40;;;3.10;;
76597;SDS011;65486;53.144;18.134;2023-02-19T08:34:06;6.30;;;2.00;;
76597;SDS011;65486;53.144;18.134;2023-02-19T08:36:33;7.20;;;2.50;;
76597;SDS011;65486;53.144;18.134;2023-02-19T08:38:59;8.00;;;2.30;;
76597;SDS011;65486;53.144;18.134;2023-02-19T08:41:29;5.00;;;2.00;;
76597;SDS011;65486;53.144;18.134;2023-02-19T08:43:55;7.10;;;2.40;;
76597;SDS011;65486;53.144;18.134;2023-02-19T08:46:22;6.70;;;2.20;;
76597;SDS011;65486;53.144;18.134;2023-02-19T08:48:48;8.70;;;2.50;;
76597;SDS011;65486;53.144;18.134;2023-02-19T08:51:15;7.10;;;2.30;;
76597;SDS011;65486;53.144;18.134;2023-02-19T08:53:41;7.40;;;2.70;;
76597;SDS011;65486;53.144;18.134;2023-02-19T08:56:12;7.10;;;1.90;;
76597;SDS011;65486;53.144;18.134;2023-02-19T08:58:45;7.80;;;2.30;;
76597;SDS011;65486;53.144;18.134;2023-02-19T09:01:14;8.30;;;3.10;;
76597;SDS011;65486;53.144;18.134;2023-02-19T09:03:43;5.20;;;1.40;;
76597;SDS011;65486;53.144;18.134;2023-02-19T09:06:16;6.60;;;1.60;;
76597;SDS011;65486;53.144;18.134;2023-02-19T09:09:03;5.90;;;1.90;;
76597;SDS011;65486;53.144;18.134;2023-02-19T09:11:37;5.50;;;1.30;;
76597;SDS011;65486;53.144;18.134;2023-02-19T09:14:05;8.30;;;1.90;;
76597;SDS011;65486;53.144;18.134;2023-02-19T09:16:34;4.00;;;1.10;;
76597;SDS011;65486;53.144;18.134;2023-02-19T09:19:02;7.20;;;1.90;;
76597;SDS011;65486;53.144;18.134;2023-02-19T09:21:39;5.60;;;1.60;;
76597;SDS011;65486;53.144;18.134;2023-02-19T09:24:28;6.00;;;1.70;;
76597;SDS011;65486;53.144;18.134;2023-02-19T09:27:02;5.80;;;1.70;;
76597;SDS011;65486;53.144;18.134;2023-02-19T09:29:41;6.10;;;1.90;;
76597;SDS011;65486;53.144;18.134;2023-02-19T09:32:11;8.00;;;2.40;;
76597;SDS011;65486;53.144;18.134;2023-02-19T09:34:37;5.00;;;1.70;;
76597;SDS011;65486;53.144;18.134;2023-02-19T09:37:05;5.90;;;1.60;;
76597;SDS011;65486;53.144;18.134;2023-02-19T09:39:32;7.80;;;1.70;;
76597;SDS011;65486;53.144;18.134;2023-02-19T09:42:08;6.60;;;1.80;;
76597;SDS011;65486;53.144;18.134;2023-02-19T09:44:41;5.90;;;1.80;;
76597;SDS011;65486;53.144;18.134;2023-02-19T09:47:17;9.00;;;2.60;;
76597;SDS011;65486;53.144;18.134;2023-02-19T09:49:52;6.10;;;1.70;;
76597;SDS011;65486;53.144;18.134;2023-02-19T09:52:55;6.90;;;1.70;;
76597;SDS011;65486;53.144;18.134;2023-02-19T09:55:44;6.20;;;1.70;;
76597;SDS011;65486;53.144;18.134;2023-02-19T09:58:21;6.50;;;1.80;;
76597;SDS011;65486;53.144;18.134;2023-02-19T10:01:00;7.40;;;1.40;;
76597;SDS011;65486;53.144;18.134;2023-02-19T10:03:39;4.30;;;1.30;;
76597;SDS011;65486;53.144;18.134;2023-02-19T10:06:20;3.80;;;1.30;;
76597;SDS011;65486;53.144;18.134;2023-02-19T10:09:01;6.70;;;1.60;;
76597;SDS011;65486;53.144;18.134;2023-02-19T10:11:40;7.30;;;1.80;;
76597;SDS011;65486;53.144;18.134;2023-02-19T10:14:12;7.40;;;1.60;;
76597;SDS011;65486;53.144;18.134;2023-02-19T10:16:50;4.00;;;1.10;;
76597;SDS011;65486;53.144;18.134;2023-02-19T10:19:23;8.00;;;1.40;;
76597;SDS011;65486;53.144;18.134;2023-02-19T10:21:58;6.50;;;2.00;;
76597;SDS011;65486;53.144;18.134;2023-02-19T10:27:54;4.60;;;1.40;;
76597;SDS011;65486;53.144;18.134;2023-02-19T10:30:41;3.60;;;1.00;;
76597;SDS011;65486;53.144;18.134;2023-02-19T10:39:28;9.20;;;2.00;;
76597;SDS011;65486;53.144;18.134;2023-02-19T10:42:04;6.10;;;1.20;;
76597;SDS011;65486;53.144;18.134;2023-02-19T10:44:53;5.50;;;1.20;;
76597;SDS011;65486;53.144;18.134;2023-02-19T10:47:24;5.30;;;1.10;;
76597;SDS011;65486;53.144;18.134;2023-02-19T10:49:52;5.00;;;1.10;;
76597;SDS011;65486;53.144;18.134;2023-02-19T10:52:27;6.10;;;1.30;;
76597;SDS011;65486;53.144;18.134;2023-02-19T10:58:22;4.10;;;0.80;;
76597;SDS011;65486;53.144;18.134;2023-02-19T11:01:29;5.20;;;1.20;;
76597;SDS011;65486;53.144;18.134;2023-02-19T11:04:14;4.70;;;1.10;;
76597;SDS011;65486;53.144;18.134;2023-02-19T11:06:47;4.40;;;1.70;;
76597;SDS011;65486;53.144;18.134;2023-02-19T11:12:03;6.80;;;1.50;;
76597;SDS011;65486;53.144;18.134;2023-02-19T11:14:32;5.30;;;1.00;;
76597;SDS011;65486;53.144;18.134;2023-02-19T11:17:00;5.20;;;1.00;;
76597;SDS011;65486;53.144;18.134;2023-02-19T11:19:38;4.30;;;0.90;;
76597;SDS011;65486;53.144;18.134;2023-02-19T11:25:02;3.50;;;1.00;;
76597;SDS011;65486;53.144;18.134;2023-02-19T11:27:33;3.90;;;0.70;;
76597;SDS011;65486;53.144;18.134;2023-02-19T11:32:50;4.30;;;1.20;;
76597;SDS011;65486;53.144;18.134;2023-02-19T11:35:24;2.90;;;0.80;;
76597;SDS011;65486;53.144;18.134;2023-02-19T11:37:52;3.50;;;0.80;;
76597;SDS011;65486;53.144;18.134;2023-02-19T11:46:43;4.90;;;0.90;;
76597;SDS011;65486;53.144;18.134;2023-02-19T11:56:17;3.30;;;0.80;;
76597;SDS011;65486;53.144;18.134;2023-02-19T12:14:15;3.20;;;0.70;;
76597;SDS011;65486;53.144;18.134;2023-02-19T12:20:40;4.10;;;0.70;;
76597;SDS011;65486;53.144;18.134;2023-02-19T12:23:25;1.50;;;0.50;;
76597;SDS011;65486;53.144;18.134;2023-02-19T12:26:40;1.50;;;0.40;;
76597;SDS011;65486;53.144;18.134;2023-02-19T12:42:27;1.50;;;0.40;;
76597;SDS011;65486;53.144;18.134;2023-02-19T12:48:15;1.00;;;0.40;;
76597;SDS011;65486;53.144;18.134;2023-02-19T12:50:48;3.60;;;0.60;;
76597;SDS011;65486;53.144;18.134;2023-02-19T12:53:26;1.20;;;0.30;;
76597;SDS011;65486;53.144;18.134;2023-02-19T12:56:02;1.30;;;0.50;;
76597;SDS011;65486;53.144;18.134;2023-02-19T12:58:39;3.70;;;0.60;;
76597;SDS011;65486;53.144;18.134;2023-02-19T13:01:17;2.20;;;0.50;;
76597;SDS011;65486;53.144;18.134;2023-02-19T13:03:52;1.60;;;0.50;;
76597;SDS011;65486;53.144;18.134;2023-02-19T13:06:47;2.00;;;0.40;;
76597;SDS011;65486;53.144;18.134;2023-02-19T13:09:22;2.00;;;0.40;;
76597;SDS011;65486;53.144;18.134;2023-02-19T13:15:15;2.40;;;0.70;;
76597;SDS011;65486;53.144;18.134;2023-02-19T13:17:59;2.90;;;0.70;;
76597;SDS011;65486;53.144;18.134;2023-02-19T13:20:34;1.00;;;0.40;;
76597;SDS011;65486;53.144;18.134;2023-02-19T13:29:17;1.40;;;0.50;;
76597;SDS011;65486;53.144;18.134;2023-02-19T13:38:02;1.70;;;0.50;;
76597;SDS011;65486;53.144;18.134;2023-02-19T13:40:30;4.20;;;0.60;;
76597;SDS011;65486;53.144;18.134;2023-02-19T13:43:22;1.80;;;0.50;;
76597;SDS011;65486;53.144;18.134;2023-02-19T13:46:14;3.10;;;0.70;;
76597;SDS011;65486;53.144;18.134;2023-02-19T13:48:42;4.60;;;0.40;;
76597;SDS011;65486;53.144;18.134;2023-02-19T14:18:56;2.70;;;0.70;;
76597;SDS011;65486;53.144;18.134;2023-02-19T14:21:34;4.60;;;0.50;;
76597;SDS011;65486;53.144;18.134;2023-02-19T14:24:02;10.30;;;2.20;;
76597;SDS011;65486;53.144;18.134;2023-02-19T14:26:31;4.30;;;0.80;;
76597;SDS011;65486;53.144;18.134;2023-02-19T14:29:00;2.10;;;0.50;;
76597;SDS011;65486;53.144;18.134;2023-02-19T14:31:36;2.50;;;0.40;;
76597;SDS011;65486;53.144;18.134;2023-02-19T14:34:31;1.50;;;0.50;;
76597;SDS011;65486;53.144;18.134;2023-02-19T14:37:00;2.90;;;0.60;;
76597;SDS011;65486;53.144;18.134;2023-02-19T14:42:53;1.40;;;0.60;;
76597;SDS011;65486;53.144;18.134;2023-02-19T14:45:26;2.60;;;0.60;;
76597;SDS011;65486;53.144;18.134;2023-02-19T14:47:58;2.70;;;0.40;;
76597;SDS011;65486;53.144;18.134;2023-02-19T14:50:27;2.70;;;0.50;;
76597;SDS011;65486;53.144;18.134;2023-02-19T14:53:00;1.70;;;0.70;;
76597;SDS011;65486;53.144;18.134;2023-02-19T14:55:30;2.30;;;0.70;;
76597;SDS011;65486;53.144;18.134;2023-02-19T14:58:03;2.60;;;0.40;;
76597;SDS011;65486;53.144;18.134;2023-02-19T15:00:36;1.50;;;0.40;;
76597;SDS011;65486;53.144;18.134;2023-02-19T15:03:05;2.20;;;0.40;;
76597;SDS011;65486;53.144;18.134;2023-02-19T15:05:35;1.70;;;0.40;;
76597;SDS011;65486;53.144;18.134;2023-02-19T15:08:11;1.30;;;0.50;;
76597;SDS011;65486;53.144;18.134;2023-02-19T15:10:45;1.50;;;0.60;;
76597;SDS011;65486;53.144;18.134;2023-02-19T15:13:18;0.90;;;0.40;;
76597;SDS011;65486;53.144;18.134;2023-02-19T15:16:06;2.30;;;0.60;;
76597;SDS011;65486;53.144;18.134;2023-02-19T15:19:00;1.20;;;0.40;;
76597;SDS011;65486;53.144;18.134;2023-02-19T15:21:45;3.10;;;0.60;;
76597;SDS011;65486;53.144;18.134;2023-02-19T15:24:15;2.50;;;0.60;;
76597;SDS011;65486;53.144;18.134;2023-02-19T15:26:43;2.70;;;0.90;;
76597;SDS011;65486;53.144;18.134;2023-02-19T15:29:20;3.70;;;0.60;;
76597;SDS011;65486;53.144;18.134;2023-02-19T15:32:00;1.80;;;0.50;;
76597;SDS011;65486;53.144;18.134;2023-02-19T15:34:29;2.80;;;0.70;;
76597;SDS011;65486;53.144;18.134;2023-02-19T15:37:21;3.70;;;1.00;;
76597;SDS011;65486;53.144;18.134;2023-02-19T15:42:45;1.60;;;0.50;;
76597;SDS011;65486;53.144;18.134;2023-02-19T15:45:34;2.80;;;0.60;;
76597;SDS011;65486;53.144;18.134;2023-02-19T15:48:24;2.40;;;0.50;;
76597;SDS011;65486;53.144;18.134;2023-02-19T15:50:58;2.10;;;0.60;;
76597;SDS011;65486;53.144;18.134;2023-02-19T15:53:47;0.90;;;0.40;;
76597;SDS011;65486;53.144;18.134;2023-02-19T15:56:22;4.10;;;0.80;;
76597;SDS011;65486;53.144;18.134;2023-02-19T15:59:17;2.70;;;0.70;;
76597;SDS011;65486;53.144;18.134;2023-02-19T16:01:59;2.00;;;0.50;;
76597;SDS011;65486;53.144;18.134;2023-02-19T16:04:27;1.70;;;0.40;;
76597;SDS011;65486;53.144;18.134;2023-02-19T16:07:00;1.90;;;0.50;;
76597;SDS011;65486;53.144;18.134;2023-02-19T16:09:42;4.10;;;0.90;;
76597;SDS011;65486;53.144;18.134;2023-02-19T16:12:19;2.60;;;0.40;;
76597;SDS011;65486;53.144;18.134;2023-02-19T16:14:47;1.80;;;0.50;;
76597;SDS011;65486;53.144;18.134;2023-02-19T16:17:15;2.40;;;0.50;;
76597;SDS011;65486;53.144;18.134;2023-02-19T16:19:54;3.00;;;0.40;;
76597;SDS011;65486;53.144;18.134;2023-02-19T16:22:30;2.40;;;0.50;;
76597;SDS011;65486;53.144;18.134;2023-02-19T16:25:04;2.70;;;0.90;;
76597;SDS011;65486;53.144;18.134;2023-02-19T16:30:17;2.00;;;0.60;;
76597;SDS011;65486;53.144;18.134;2023-02-19T16:36:16;4.10;;;1.00;;
76597;SDS011;65486;53.144;18.134;2023-02-19T16:42:15;2.80;;;0.90;;
76597;SDS011;65486;53.144;18.134;2023-02-19T16:44:43;3.40;;;0.90;;
76597;SDS011;65486;53.144;18.134;2023-02-19T16:47:22;3.40;;;0.60;;
76597;SDS011;65486;53.144;18.134;2023-02-19T16:50:05;3.80;;;0.50;;
76597;SDS011;65486;53.144;18.134;2023-02-19T16:52:49;1.70;;;0.60;;
76597;SDS011;65486;53.144;18.134;2023-02-19T16:55:20;2.20;;;0.70;;
76597;SDS011;65486;53.144;18.134;2023-02-19T16:57:50;3.20;;;0.70;;
76597;SDS011;65486;53.144;18.134;2023-02-19T17:00:19;2.80;;;0.70;;
76597;SDS011;65486;53.144;18.134;2023-02-19T17:03:15;3.20;;;1.00;;
76597;SDS011;65486;53.144;18.134;2023-02-19T17:06:26;5.00;;;1.00;;
76597;SDS011;65486;53.144;18.134;2023-02-19T17:08:53;2.60;;;0.70;;
76597;SDS011;65486;53.144;18.134;2023-02-19T17:14:05;1.80;;;0.70;;
76597;SDS011;65486;53.144;18.134;2023-02-19T17:16:34;4.70;;;1.00;;
76597;SDS011;65486;53.144;18.134;2023-02-19T17:22:21;3.30;;;0.80;;
76597;SDS011;65486;53.144;18.134;2023-02-19T17:25:11;6.10;;;1.00;;
76597;SDS011;65486;53.144;18.134;2023-02-19T17:27:45;2.50;;;0.60;;
76597;SDS011;65486;53.144;18.134;2023-02-19T17:30:29;2.90;;;0.90;;
76597;SDS011;65486;53.144;18.134;2023-02-19T17:33:01;3.60;;;0.90;;
76597;SDS011;65486;53.144;18.134;2023-02-19T17:35:27;5.10;;;1.00;;
76597;SDS011;65486;53.144;18.134;2023-02-19T17:37:54;3.70;;;0.80;;
76597;SDS011;65486;53.144;18.134;2023-02-19T17:40:29;3.70;;;0.90;;
76597;SDS011;65486;53.144;18.134;2023-02-19T17:42:57;2.40;;;0.80;;
76597;SDS011;65486;53.144;18.134;2023-02-19T17:45:23;4.10;;;0.60;;
76597;SDS011;65486;53.144;18.134;2023-02-19T17:47:50;3.20;;;0.80;;
76597;SDS011;65486;53.144;18.134;2023-02-19T17:50:20;2.80;;;0.90;;
76597;SDS011;65486;53.144;18.134;2023-02-19T17:52:53;3.80;;;1.20;;
76597;SDS011;65486;53.144;18.134;2023-02-19T17:55:57;3.40;;;1.20;;